createdAt,value
2022-12-20T00:00:03.036Z,100885.02
2022-12-20T00:02:07.773Z,100888.09
2022-12-20T00:04:12.561Z,100891.58
2022-12-20T00:06:16.994Z,100890.95
2022-12-20T00:08:21.406Z,100893.23
2022-12-20T00:10:25.897Z,100893.52
2022-12-20T00:12:30.290Z,100892.16
2022-12-20T00:14:34.682Z,100889.42
2022-12-20T00:16:39.147Z,100887.51
2022-12-20T00:18:43.689Z,100889.36
2022-12-20T00:20:48.101Z,100896.13
2022-12-20T00:22:52.491Z,100891.35
2022-12-20T00:24:56.876Z,100881.16
2022-12-20T00:27:01.243Z,100880.22
2022-12-20T00:29:05.677Z,100880.47
2022-12-20T00:31:10.251Z,100879.41
2022-12-20T00:33:14.840Z,100878.08
2022-12-20T00:35:19.277Z,100881.5
2022-12-20T00:37:23.781Z,100878.36
2022-12-20T00:39:28.218Z,100867.39
2022-12-20T00:41:32.657Z,100868.45
2022-12-20T00:43:37.072Z,100865.91
2022-12-20T00:45:41.508Z,100872.47
2022-12-20T00:47:45.908Z,100883.13
2022-12-20T00:49:50.448Z,100881.38
2022-12-20T00:51:54.882Z,100886.23
2022-12-20T00:53:59.362Z,100884.32
2022-12-20T00:56:03.876Z,100885.82
2022-12-20T00:58:08.281Z,100878.65
2022-12-20T01:00:12.715Z,100881.59
2022-12-20T01:02:17.693Z,100882.38
2022-12-20T01:04:22.558Z,100874.39
2022-12-20T01:06:27.013Z,100881.29
2022-12-20T01:08:31.421Z,100886.03
2022-12-20T01:10:35.837Z,100893.42
2022-12-20T01:12:40.232Z,100887.2
2022-12-20T01:14:44.636Z,100880.04
2022-12-20T01:16:49.205Z,100883.05
2022-12-20T01:18:53.765Z,100886.77
2022-12-20T01:20:58.164Z,100883.69
2022-12-20T01:23:02.922Z,100889.57
2022-12-20T01:25:07.293Z,100895
2022-12-20T01:27:11.733Z,100894
2022-12-20T01:29:16.137Z,100894.52
2022-12-20T01:31:20.653Z,100893.43
2022-12-20T01:33:25.264Z,100884.52
2022-12-20T01:35:29.646Z,100871.54
2022-12-20T01:37:34.007Z,100863.58
2022-12-20T01:39:38.410Z,100859.66
2022-12-20T01:41:42.882Z,100861.53
2022-12-20T01:43:47.339Z,100858.02
2022-12-20T01:45:51.983Z,100864.41
2022-12-20T01:47:56.490Z,100850.32
2022-12-20T01:50:00.964Z,100837.52
2022-12-20T01:52:05.383Z,100828.66
2022-12-20T01:54:09.901Z,100827.74
2022-12-20T01:56:14.316Z,100823.34
2022-12-20T01:58:18.678Z,100817.75
2022-12-20T02:00:23.110Z,100821.06
2022-12-20T02:02:27.881Z,100820.48
2022-12-20T02:04:32.417Z,100807.61
2022-12-20T02:06:36.801Z,100816.79
2022-12-20T02:08:41.202Z,100805.59
2022-12-20T02:10:45.644Z,100802.89
2022-12-20T02:12:50.024Z,100804.16
2022-12-20T02:14:54.436Z,100804.87
2022-12-20T02:16:58.995Z,100806.43
2022-12-20T02:19:03.540Z,100810.13
2022-12-20T02:21:07.952Z,100807.67
2022-12-20T02:23:12.335Z,100803.03
2022-12-20T02:25:16.740Z,100795.49
2022-12-20T02:27:21.186Z,100794.02
2022-12-20T02:29:27.024Z,100790.34
2022-12-20T02:31:31.564Z,100788.29
2022-12-20T02:33:36.063Z,100789.93
2022-12-20T02:35:40.470Z,100780.89
2022-12-20T02:37:44.831Z,100779.69
2022-12-20T02:39:49.216Z,100775.3
2022-12-20T02:41:53.665Z,100771.85
2022-12-20T02:43:58.031Z,100774.3
2022-12-20T02:46:02.599Z,100766.91
2022-12-20T02:48:07.111Z,100756.09
2022-12-20T02:50:11.485Z,100758.76
2022-12-20T02:52:15.853Z,100755.97
2022-12-20T02:54:20.234Z,100760.13
2022-12-20T02:56:24.680Z,100766.93
2022-12-20T02:58:29.075Z,100766.59
2022-12-20T03:00:33.569Z,100756.47
2022-12-20T03:02:38.377Z,100755.31
2022-12-20T03:04:43.152Z,100755.66
2022-12-20T03:06:47.535Z,100748.56
2022-12-20T03:08:51.932Z,100749.45
2022-12-20T03:10:56.450Z,100746.92
2022-12-20T03:13:00.931Z,100748.87
2022-12-20T03:15:05.323Z,100748.7
2022-12-20T03:17:09.942Z,100749.11
2022-12-20T03:19:14.564Z,100749.52
2022-12-20T03:21:18.932Z,100747.53
2022-12-20T03:23:23.321Z,100747.5
2022-12-20T03:25:27.714Z,100748.33
2022-12-20T03:27:32.108Z,100749.45
2022-12-20T03:29:36.518Z,100754.2
2022-12-20T03:31:40.923Z,100752.77
2022-12-20T03:33:45.337Z,100748.33
2022-12-20T03:35:49.717Z,100747.55
2022-12-20T03:37:54.041Z,100746.15
2022-12-20T03:39:58.416Z,100744.61
2022-12-20T03:42:02.793Z,100748.53
2022-12-20T03:44:07.349Z,100745.39
2022-12-20T03:46:11.998Z,100756
2022-12-20T03:48:16.522Z,100754.25
2022-12-20T03:50:20.928Z,100753.48
2022-12-20T03:52:25.333Z,100744.81
2022-12-20T03:54:29.863Z,100743.93
2022-12-20T03:56:34.284Z,100745.88
2022-12-20T03:58:38.706Z,100740.99
2022-12-20T04:00:43.067Z,100740.18
2022-12-20T04:02:48.045Z,100743.8
2022-12-20T04:04:52.995Z,100749.56
2022-12-20T04:06:57.418Z,100741.31
2022-12-20T04:09:01.906Z,100748.17
2022-12-20T04:11:06.309Z,100753.39
2022-12-20T04:13:10.687Z,100752.23
2022-12-20T04:15:15.170Z,100746.23
2022-12-20T04:17:19.566Z,100743.3
2022-12-20T04:19:24.002Z,100754.59
2022-12-20T04:21:28.414Z,100761.38
2022-12-20T04:23:32.811Z,100753.41
2022-12-20T04:25:37.174Z,100754.43
2022-12-20T04:27:41.541Z,100753.94
2022-12-20T04:29:46.016Z,100759.19
2022-12-20T04:31:50.606Z,100752.41
2022-12-20T04:33:55.330Z,100744.67
2022-12-20T04:35:59.728Z,100752.92
2022-12-20T04:38:04.088Z,100762.13
2022-12-20T04:40:08.448Z,100761.35
2022-12-20T04:42:12.810Z,100764.35
2022-12-20T04:44:17.206Z,100777.48
2022-12-20T04:46:21.727Z,100774.18
2022-12-20T04:48:58.656Z,100767.37
2022-12-20T04:51:04.053Z,100766.52
2022-12-20T04:53:08.435Z,100769.93
2022-12-20T04:55:12.893Z,100771.56
2022-12-20T04:57:17.395Z,100763.17
2022-12-20T04:59:21.808Z,100749.16
2022-12-20T05:01:26.765Z,100752.48
2022-12-20T05:03:31.756Z,100749.72
2022-12-20T05:05:36.381Z,100748.77
2022-12-20T05:07:40.777Z,100747.22
2022-12-20T05:09:45.267Z,100744.94
2022-12-20T05:11:49.667Z,100734.94
2022-12-20T05:13:54.028Z,100728.33
2022-12-20T05:15:58.505Z,100732.42
2022-12-20T05:18:03.024Z,100748.7
2022-12-20T05:20:07.452Z,100749.18
2022-12-20T05:22:11.868Z,100751.33
2022-12-20T05:24:16.243Z,100742.02
2022-12-20T05:26:20.667Z,100747.03
2022-12-20T05:28:25.085Z,100755.4
2022-12-20T05:30:29.471Z,100765.16
2022-12-20T05:32:33.940Z,100760.48
2022-12-20T05:34:38.322Z,100763.78
2022-12-20T05:36:42.848Z,100750.95
2022-12-20T05:38:47.241Z,100751.43
2022-12-20T05:40:51.617Z,100753.86
2022-12-20T05:42:56.012Z,100754.58
2022-12-20T05:45:00.447Z,100757.92
2022-12-20T05:47:05.093Z,100746.69
2022-12-20T05:49:09.662Z,100735.58
2022-12-20T05:51:13.999Z,100730.22
2022-12-20T05:53:18.380Z,100734.69
2022-12-20T05:55:22.863Z,100734.09
2022-12-20T05:57:29.448Z,100731.52
2022-12-20T05:59:33.843Z,100737.17
2022-12-20T06:01:38.508Z,100731.5
2022-12-20T06:03:43.345Z,100731.82
2022-12-20T06:05:48.259Z,100737.58
2022-12-20T06:07:52.780Z,100738.23
2022-12-20T06:09:57.255Z,100742.42
2022-12-20T06:12:01.614Z,100736.9
2022-12-20T06:14:06.047Z,100736.22
2022-12-20T06:16:10.520Z,100733.11
2022-12-20T06:18:15.020Z,100730.75
2022-12-20T06:20:19.428Z,100732.08
2022-12-20T06:22:23.828Z,100732.25
2022-12-20T06:24:28.212Z,100731.22
2022-12-20T06:26:32.586Z,100729.71
2022-12-20T06:28:36.942Z,100729.86
2022-12-20T06:30:41.477Z,100734.33
2022-12-20T06:32:45.880Z,100736.23
2022-12-20T06:34:50.307Z,100736.52
2022-12-20T06:36:54.666Z,100736.55
2022-12-20T06:39:01.290Z,100736.85
2022-12-20T06:41:13.087Z,100732.96
2022-12-20T06:43:17.530Z,100733.75
2022-12-20T06:45:21.916Z,100732.41
2022-12-20T06:47:26.413Z,100732.09
2022-12-20T06:49:30.791Z,100733.29
2022-12-20T06:51:35.183Z,100735.44
2022-12-20T06:53:39.560Z,100735.67
2022-12-20T06:55:43.942Z,100737.88
2022-12-20T06:57:48.363Z,100733.19
2022-12-20T06:59:52.943Z,100730.34
2022-12-20T07:01:57.943Z,100724.88
2022-12-20T07:04:02.943Z,100733.48
2022-12-20T07:06:07.485Z,100730.03
2022-12-20T07:08:12.027Z,100741.98
2022-12-20T07:10:16.415Z,100737.84
2022-12-20T07:12:20.806Z,100742.69
2022-12-20T07:14:27.047Z,100737.56
2022-12-20T07:16:31.552Z,100740.44
2022-12-20T07:18:37.055Z,100741.5
2022-12-20T07:20:41.429Z,100744.84
2022-12-20T07:22:45.801Z,100738.67
2022-12-20T07:24:50.201Z,100741.2
2022-12-20T07:26:54.569Z,100737.16
2022-12-20T07:28:59.062Z,100736.03
2022-12-20T07:31:03.499Z,100741.28
2022-12-20T07:33:07.945Z,100735.52
2022-12-20T07:35:12.357Z,100730.61
2022-12-20T07:37:16.799Z,100725.25
2022-12-20T07:39:21.192Z,100720.2
2022-12-20T07:41:25.954Z,100721.77
2022-12-20T07:43:30.445Z,100726.08
2022-12-20T07:45:34.929Z,100726.89
2022-12-20T07:47:40.479Z,100728.59
2022-12-20T07:49:44.793Z,100729.79
2022-12-20T07:51:49.163Z,100734.73
2022-12-20T07:53:53.711Z,100737.08
2022-12-20T07:55:58.184Z,100732.47
2022-12-20T07:58:02.681Z,100741.27
2022-12-20T08:00:07.077Z,100733.19
2022-12-20T08:02:11.991Z,100732.65
2022-12-20T08:04:16.874Z,100729.47
2022-12-20T08:06:21.280Z,100717.7
2022-12-20T08:08:25.693Z,100722.59
2022-12-20T08:10:30.161Z,100721.44
2022-12-20T08:12:34.551Z,100718.6
2022-12-20T08:14:38.959Z,100714.51
2022-12-20T08:16:43.542Z,100713.86
2022-12-20T08:18:48.072Z,100710.58
2022-12-20T08:20:52.442Z,100713.69
2022-12-20T08:22:56.861Z,100709.8
2022-12-20T08:25:01.451Z,100706.56
2022-12-20T08:27:05.820Z,100705.02
2022-12-20T08:29:10.284Z,100705.09
2022-12-20T08:31:15.037Z,100708.2
2022-12-20T08:33:19.609Z,100708.03
2022-12-20T08:35:24.040Z,100711.41
2022-12-20T08:37:28.424Z,100718.95
2022-12-20T08:39:32.834Z,100729.63
2022-12-20T08:41:37.180Z,100743.11
2022-12-20T08:43:41.715Z,100751.44
2022-12-20T08:45:46.139Z,100753.68
2022-12-20T08:47:50.576Z,100748.39
2022-12-20T08:49:55.099Z,100737.09
2022-12-20T08:51:59.470Z,100734.7
2022-12-20T08:54:03.999Z,100733.17
2022-12-20T08:56:08.402Z,100735.16
2022-12-20T08:58:12.779Z,100734.88
2022-12-20T09:00:17.235Z,100734.13
2022-12-20T09:02:22.157Z,100733.88
2022-12-20T09:04:27.078Z,100738.55
2022-12-20T09:06:31.457Z,100737.53
2022-12-20T09:08:35.816Z,100736.27
2022-12-20T09:10:40.225Z,100736.22
2022-12-20T09:12:44.591Z,100730.05
2022-12-20T09:14:48.974Z,100725.55
2022-12-20T09:16:53.375Z,100722.59
2022-12-20T09:19:06.431Z,100721.52
2022-12-20T09:21:11.097Z,100727.56
2022-12-20T09:23:15.451Z,100728.97
2022-12-20T09:25:19.847Z,100732.31
2022-12-20T09:27:24.367Z,100730.23
2022-12-20T09:29:36.309Z,100718.52
2022-12-20T09:31:40.978Z,100712.59
2022-12-20T09:33:45.715Z,100712.56
2022-12-20T09:35:50.639Z,100707.67
2022-12-20T09:37:55.010Z,100699.59
2022-12-20T09:39:59.404Z,100696.8
2022-12-20T09:42:03.991Z,100695.88
2022-12-20T09:44:08.408Z,100684.53
2022-12-20T09:46:12.867Z,100679.89
2022-12-20T09:48:17.362Z,100683.43
2022-12-20T09:50:21.740Z,100686.5
2022-12-20T09:52:26.228Z,100686.34
2022-12-20T09:54:30.638Z,100694.05
2022-12-20T09:56:35.085Z,100692.23
2022-12-20T09:58:39.479Z,100694.93
2022-12-20T10:00:50.094Z,100695.38
2022-12-20T10:03:10.916Z,100691.72
2022-12-20T10:05:16.374Z,100692.75
2022-12-20T10:07:21.123Z,100703.06
2022-12-20T10:09:25.492Z,100713.35
2022-12-20T10:11:42.150Z,100710.7
2022-12-20T10:13:54.330Z,100716.67
2022-12-20T10:15:58.807Z,100722.44
2022-12-20T10:18:03.289Z,100725.72
2022-12-20T10:20:07.802Z,100735.41
2022-12-20T10:22:12.219Z,100730.32
2022-12-20T10:24:16.622Z,100717.25
2022-12-20T10:26:22.799Z,100714.27
2022-12-20T10:28:27.311Z,100713.34
2022-12-20T10:30:31.826Z,100718.09
2022-12-20T10:32:36.261Z,100704.89
2022-12-20T10:34:48.701Z,100697.82
2022-12-20T10:36:53.199Z,100696.38
2022-12-20T10:38:57.636Z,100703.98
2022-12-20T10:41:23.343Z,100700.81
2022-12-20T10:43:27.983Z,100694.34
2022-12-20T10:45:37.319Z,100687.88
2022-12-20T10:47:41.735Z,100685.17
2022-12-20T10:49:46.245Z,100678.35
2022-12-20T10:51:50.632Z,100675.75
2022-12-20T10:53:55.105Z,100668.3
2022-12-20T10:55:59.651Z,100674.2
2022-12-20T10:58:04.201Z,100673.19
2022-12-20T11:00:08.674Z,100662.5
2022-12-20T11:02:13.335Z,100658.77
2022-12-20T11:04:18.363Z,100654.16
2022-12-20T11:06:22.890Z,100652.98
2022-12-20T11:08:56.924Z,100654.3
2022-12-20T11:11:04.754Z,100654.65
2022-12-20T11:13:09.177Z,100653.65
2022-12-20T11:15:13.597Z,100648.67
2022-12-20T11:17:18.021Z,100640.64
2022-12-20T11:19:22.434Z,100642.53
2022-12-20T11:21:29.568Z,100639.72
2022-12-20T11:23:34.130Z,100640.81
2022-12-20T11:25:38.531Z,100647.61
2022-12-20T11:27:43.081Z,100653.05
2022-12-20T11:29:47.489Z,100646.42
2022-12-20T11:31:52.081Z,100646
2022-12-20T11:33:56.700Z,100637.03
2022-12-20T11:36:01.072Z,100639.55
2022-12-20T11:38:10.843Z,100635.64
2022-12-20T11:40:15.386Z,100623.92
2022-12-20T11:42:19.913Z,100618.5
2022-12-20T11:44:27.680Z,100622
2022-12-20T11:46:32.469Z,100624.01
2022-12-20T11:48:37.007Z,100632.53
2022-12-20T11:50:41.567Z,100621.47
2022-12-20T11:52:45.955Z,100629.05
2022-12-20T11:54:50.415Z,100620.64
2022-12-20T11:56:54.944Z,100628.83
2022-12-20T11:58:59.442Z,100631.39
2022-12-20T12:01:03.882Z,100627.44
2022-12-20T12:03:08.651Z,100635.59
2022-12-20T12:05:13.390Z,100622.54
2022-12-20T12:07:18.063Z,100622.08
2022-12-20T12:09:22.451Z,100626.05
2022-12-20T12:12:08.102Z,100632.34
2022-12-20T12:14:13.540Z,100630.81
2022-12-20T12:16:18.205Z,100621.41
2022-12-20T12:18:22.713Z,100634.98
2022-12-20T12:20:27.265Z,100636.13
2022-12-20T12:22:31.842Z,100638.5
2022-12-20T12:24:36.236Z,100639.64
2022-12-20T12:26:40.750Z,100633.13
2022-12-20T12:28:45.172Z,100619.63
2022-12-20T12:30:49.761Z,100618.31
2022-12-20T12:32:54.222Z,100611.58
2022-12-20T12:34:58.779Z,100614.35
2022-12-20T12:37:03.230Z,100615.38
2022-12-20T12:39:07.701Z,100614.94
2022-12-20T12:41:12.117Z,100616.45
2022-12-20T12:43:16.544Z,100618.83
2022-12-20T12:45:21.063Z,100624.14
2022-12-20T12:47:25.492Z,100610.16
2022-12-20T12:49:29.892Z,100602.77
2022-12-20T12:51:34.313Z,100590.32
2022-12-20T12:53:38.713Z,100592.16
2022-12-20T12:55:43.142Z,100591.75
2022-12-20T12:57:47.531Z,100588.81
2022-12-20T12:59:52.042Z,100585.22
2022-12-20T13:01:57.093Z,100584.57
2022-12-20T13:04:01.860Z,100586.98
2022-12-20T13:06:06.299Z,100559.66
2022-12-20T13:08:10.711Z,100584.53
2022-12-20T13:10:15.266Z,100577.98
2022-12-20T13:12:19.793Z,100586.77
2022-12-20T13:14:24.311Z,100588.47
2022-12-20T13:17:12.480Z,100586.23
2022-12-20T13:19:22.898Z,100573.87
2022-12-20T13:21:27.331Z,100573.53
2022-12-20T13:23:31.705Z,100574.3
2022-12-20T13:25:36.170Z,100573.81
2022-12-20T13:27:41.918Z,100571.87
2022-12-20T13:29:46.343Z,100568.84
2022-12-20T13:31:55.601Z,100563.58
2022-12-20T13:34:00.023Z,100565.87
2022-12-20T13:36:04.635Z,100567.9
2022-12-20T13:38:09.153Z,100550.96
2022-12-20T13:40:13.566Z,100557.58
2022-12-20T13:42:18.032Z,100552.05
2022-12-20T13:44:22.475Z,100543.19
2022-12-20T13:46:27.104Z,100523.86
2022-12-20T13:48:31.716Z,100530.77
2022-12-20T13:50:36.091Z,100524.03
2022-12-20T13:52:40.495Z,100527.54
2022-12-20T13:54:44.956Z,100532.98
2022-12-20T13:56:49.460Z,100520.77
2022-12-20T13:58:53.932Z,100525.02
2022-12-20T14:00:58.587Z,100530.27
2022-12-20T14:03:03.593Z,100528.67
2022-12-20T14:05:08.480Z,100531.05
2022-12-20T14:07:13.004Z,100532.45
2022-12-20T14:09:17.491Z,100528.24
2022-12-20T14:11:21.920Z,100523.7
2022-12-20T14:13:26.476Z,100515.24
2022-12-20T14:15:30.996Z,100510.9
2022-12-20T14:17:44.440Z,100509.63
2022-12-20T14:19:49.041Z,100511.04
2022-12-20T14:21:53.544Z,100518.84
2022-12-20T14:23:58.096Z,100503.25
2022-12-20T14:26:02.511Z,100512.73
2022-12-20T14:28:07.017Z,100500.29
2022-12-20T14:30:11.396Z,100507.73
2022-12-20T14:32:15.897Z,100503.05
2022-12-20T14:34:23.310Z,100497.57
2022-12-20T14:36:33.361Z,100505.62
2022-12-20T14:38:37.779Z,100511.48
2022-12-20T14:40:42.202Z,100508.19
2022-12-20T14:42:46.592Z,100507.35
2022-12-20T14:44:51.082Z,100503.34
2022-12-20T14:46:55.802Z,100503.05
2022-12-20T14:49:00.506Z,100500.54
2022-12-20T14:51:04.945Z,100503.92
2022-12-20T14:53:09.408Z,100501.63
2022-12-20T14:55:13.851Z,100502.2
2022-12-20T14:57:18.297Z,100499.23
2022-12-20T14:59:22.764Z,100474.64
2022-12-20T15:01:27.473Z,100482.64
2022-12-20T15:03:32.664Z,100474.47
2022-12-20T15:05:38.051Z,100482.92
2022-12-20T15:07:42.477Z,100474.36
2022-12-20T15:09:46.890Z,100458.25
2022-12-20T15:11:51.301Z,100453.15
2022-12-20T15:13:55.909Z,100450.09
2022-12-20T15:16:00.672Z,100457.31
2022-12-20T15:18:06.174Z,100465.33
2022-12-20T15:20:11.140Z,100461.77
2022-12-20T15:22:16.284Z,100463.92
2022-12-20T15:24:21.173Z,100460.9
2022-12-20T15:26:25.614Z,100457.82
2022-12-20T15:28:30.049Z,100452.19
2022-12-20T15:30:34.825Z,100447.85
2022-12-20T15:32:54.917Z,100455.95
2022-12-20T15:35:00.010Z,100459.61
2022-12-20T15:37:04.614Z,100458.53
2022-12-20T15:39:14.872Z,100451.63
2022-12-20T15:41:19.507Z,100445.49
2022-12-20T15:43:23.907Z,100462.23
2022-12-20T15:45:28.347Z,100471.47
2022-12-20T15:47:32.739Z,100457.98
2022-12-20T15:49:37.249Z,100457.69
2022-12-20T15:51:41.658Z,100461.58
2022-12-20T15:53:46.145Z,100454.28
2022-12-20T15:55:50.589Z,100443.09
2022-12-20T15:57:54.969Z,100439.7
2022-12-20T16:00:03.643Z,100425.22
2022-12-20T16:02:08.873Z,100422.48
2022-12-20T16:04:13.706Z,100419.02
2022-12-20T16:06:18.421Z,100413.67
2022-12-20T16:08:22.799Z,100417.69
2022-12-20T16:10:27.781Z,100418.34
2022-12-20T16:12:32.875Z,100414.3
2022-12-20T16:14:37.210Z,100420.38
2022-12-20T16:16:41.787Z,100422.29
2022-12-20T16:18:46.362Z,100427.62
2022-12-20T16:20:50.790Z,100439.02
2022-12-20T16:22:55.235Z,100443.27
2022-12-20T16:24:59.630Z,100446.25
2022-12-20T16:27:04.079Z,100446.57
2022-12-20T16:29:08.489Z,100442.39
2022-12-20T16:31:13.015Z,100439.74
2022-12-20T16:33:17.611Z,100436.28
2022-12-20T16:35:22.175Z,100431.88
2022-12-20T16:37:26.659Z,100431.28
2022-12-20T16:39:31.070Z,100436.26
2022-12-20T16:41:35.510Z,100432
2022-12-20T16:43:40.269Z,100442.7
2022-12-20T16:45:44.695Z,100446.74
2022-12-20T16:47:49.404Z,100447.16
2022-12-20T16:49:54.975Z,100454.41
2022-12-20T16:51:59.401Z,100454.72
2022-12-20T16:54:21.153Z,100460.94
2022-12-20T16:56:25.988Z,100463.88
2022-12-20T16:59:21.050Z,100461.72
2022-12-20T17:01:27.207Z,100453.35
2022-12-20T17:03:32.068Z,100454.36
2022-12-20T17:05:36.758Z,100448.91
2022-12-20T17:07:42.800Z,100449.84
2022-12-20T17:12:15.368Z,100437.39
2022-12-20T17:14:20.028Z,100427.64
2022-12-20T17:16:24.848Z,100435.42
2022-12-20T17:18:29.439Z,100440.2
2022-12-20T17:20:37.953Z,100442.55
2022-12-20T17:22:57.050Z,100445.94
2022-12-20T17:25:01.473Z,100447.63
2022-12-20T17:27:05.879Z,100438.27
2022-12-20T17:29:10.266Z,100445.67
2022-12-20T17:31:14.846Z,100445.76
2022-12-20T17:33:19.404Z,100441.84
2022-12-20T17:35:23.886Z,100445.39
2022-12-20T17:37:28.377Z,100449.5
2022-12-20T17:39:32.866Z,100453.61
2022-12-20T17:41:37.274Z,100442.85
2022-12-20T17:43:41.676Z,100435.37
2022-12-20T17:45:46.231Z,100424.38
2022-12-20T17:47:50.997Z,100442.51
2022-12-20T17:49:55.405Z,100441.81
2022-12-20T17:51:59.813Z,100439.86
2022-12-20T17:54:04.262Z,100430.02
2022-12-20T17:56:08.655Z,100424.82
2022-12-20T17:58:13.278Z,100420.98
2022-12-20T18:00:17.757Z,100415.55
2022-12-20T18:02:22.939Z,100415.33
2022-12-20T18:04:28.353Z,100426.31
2022-12-20T18:06:33.038Z,100424.13
2022-12-20T18:08:37.473Z,100416.6
2022-12-20T18:10:42.075Z,100422.11
2022-12-20T18:12:46.588Z,100366.34
2022-12-20T18:14:51.229Z,100420.63
2022-12-20T18:16:55.911Z,100416.88
2022-12-20T18:19:00.440Z,100414.52
2022-12-20T18:21:04.851Z,100412.2
2022-12-20T18:23:09.272Z,100400.7
2022-12-20T18:25:14.019Z,100407.34
2022-12-20T18:27:18.444Z,100414.27
2022-12-20T18:29:27.174Z,100410.37
2022-12-20T18:31:31.774Z,100395.06
2022-12-20T18:33:36.331Z,100382.07
2022-12-20T18:35:40.844Z,100392.61
2022-12-20T18:37:45.292Z,100385.89
2022-12-20T18:39:49.755Z,100392.07
2022-12-20T18:41:54.261Z,100392.71
2022-12-20T18:43:58.833Z,100391.09
2022-12-20T18:46:03.618Z,100388.3
2022-12-20T18:48:08.288Z,100372.7
2022-12-20T18:50:12.780Z,100379.56
2022-12-20T18:52:17.402Z,100368.94
2022-12-20T18:54:21.919Z,100369.84
2022-12-20T18:56:26.726Z,100357.08
2022-12-20T18:58:37.177Z,100341.66
2022-12-20T19:00:41.622Z,100343.33
2022-12-20T19:02:46.497Z,100344.04
2022-12-20T19:04:51.184Z,100341.75
2022-12-20T19:06:55.795Z,100344.12
2022-12-20T19:09:00.340Z,100347.45
2022-12-20T19:11:05.135Z,100349.94
2022-12-20T19:13:09.528Z,100360.73
2022-12-20T19:15:14.088Z,100363.69
2022-12-20T19:17:18.654Z,100348.5
2022-12-20T19:19:24.309Z,100352.57
2022-12-20T19:21:28.729Z,100356.02
2022-12-20T19:23:33.226Z,100349.32
2022-12-20T19:25:37.681Z,100352.13
2022-12-20T19:27:42.122Z,100344.42
2022-12-20T19:29:46.606Z,100347.03
2022-12-20T19:31:51.303Z,100341.52
2022-12-20T19:33:55.905Z,100336.74
2022-12-20T19:36:00.460Z,100334.23
2022-12-20T19:38:04.875Z,100335.2
2022-12-20T19:40:09.277Z,100336.59
2022-12-20T19:42:25.631Z,100347.47
2022-12-20T19:44:30.337Z,100348.48
2022-12-20T19:46:34.933Z,100363.77
2022-12-20T19:48:39.630Z,100352.05
2022-12-20T19:50:44.092Z,100349.92
2022-12-20T19:52:48.647Z,100332.15
2022-12-20T19:54:53.177Z,100319.48
2022-12-20T19:56:57.803Z,100331.31
2022-12-20T19:59:02.347Z,100316.11
2022-12-20T20:01:07.068Z,100312.39
2022-12-20T20:03:12.114Z,100313.91
2022-12-20T20:05:17.042Z,100324.34
2022-12-20T20:07:21.509Z,100319.08
2022-12-20T20:09:26.089Z,100316.09
2022-12-20T20:11:30.864Z,100328.62
2022-12-20T20:13:35.816Z,100344.7
2022-12-20T20:15:40.602Z,100331.83
2022-12-20T20:17:45.213Z,100321.98
2022-12-20T20:19:49.829Z,100310.67
2022-12-20T20:21:54.465Z,100300.65
2022-12-20T20:23:59.008Z,100286.17
2022-12-20T20:26:03.610Z,100277.36
2022-12-20T20:28:08.056Z,100271.56
2022-12-20T20:30:12.515Z,100283.45
2022-12-20T20:32:16.974Z,100279.48
2022-12-20T20:34:21.755Z,100276.25
2022-12-20T20:36:26.536Z,100292.18
2022-12-20T20:38:31.462Z,100297.95
2022-12-20T20:40:35.988Z,100302.09
2022-12-20T20:42:40.513Z,100297.88
2022-12-20T20:44:44.963Z,100298.87
2022-12-20T20:46:49.615Z,100291.06
2022-12-20T20:48:54.257Z,100291.13
2022-12-20T20:50:58.735Z,100281.76
2022-12-20T20:53:03.222Z,100274.08
2022-12-20T20:55:07.924Z,100268.5
2022-12-20T20:57:12.576Z,100271
2022-12-20T20:59:19.289Z,100273.48
2022-12-20T21:01:24.354Z,100281.89
2022-12-20T21:03:29.215Z,100274.98
2022-12-20T21:06:40.330Z,100266.05
2022-12-20T21:08:45.934Z,100274.81
2022-12-20T21:10:50.777Z,100277.08
2022-12-20T21:12:55.348Z,100286.09
2022-12-20T21:15:29.832Z,100273.47
2022-12-20T21:17:34.305Z,100269.61
2022-12-20T21:19:38.783Z,100280.5
2022-12-20T21:21:43.191Z,100282.88
2022-12-20T21:23:47.598Z,100269.53
2022-12-20T21:25:52.067Z,100263.47
2022-12-20T21:27:56.555Z,100248.67
2022-12-20T21:30:00.997Z,100255.16
2022-12-20T21:32:05.669Z,100253
2022-12-20T21:34:10.057Z,100254.5
2022-12-20T21:36:14.439Z,100258
2022-12-20T21:38:18.953Z,100260.12
2022-12-20T21:40:23.470Z,100257.64
2022-12-20T21:42:27.881Z,100261.13
2022-12-20T21:44:32.332Z,100269.64
2022-12-20T21:46:36.950Z,100275.5
2022-12-20T21:48:41.632Z,100264.44
2022-12-20T21:50:46.111Z,100254.75
2022-12-20T21:52:50.956Z,100243.09
2022-12-20T21:54:55.393Z,100235.93
2022-12-20T21:56:59.835Z,100226.45
2022-12-20T21:59:04.313Z,100227.64
2022-12-20T22:01:09.236Z,100231.75
2022-12-20T22:03:14.350Z,100228.3
2022-12-20T22:05:19.098Z,100224.22
2022-12-20T22:07:23.560Z,100218
2022-12-20T22:09:27.965Z,100218.75
2022-12-20T22:11:32.366Z,100220.34
2022-12-20T22:13:42.517Z,100223.64
2022-12-20T22:15:46.961Z,100218.73
2022-12-20T22:17:51.603Z,100219.05
2022-12-20T22:19:56.015Z,100205.23
2022-12-20T22:22:00.491Z,100207.24
2022-12-20T22:24:04.905Z,100204.67
2022-12-20T22:26:09.578Z,100204.77
2022-12-20T22:28:14.078Z,100204.77
2022-12-20T22:30:18.492Z,100198.88
2022-12-20T22:32:22.926Z,100194.5
2022-12-20T22:34:27.406Z,100195.64
2022-12-20T22:36:31.917Z,100205.81
2022-12-20T22:38:36.531Z,100204.72
2022-12-20T22:40:40.968Z,100200.34
2022-12-20T22:42:45.393Z,100197
2022-12-20T22:44:49.794Z,100194.73
2022-12-20T22:46:54.420Z,100197.25
2022-12-20T22:48:59.227Z,100193.48
2022-12-20T22:51:03.839Z,100191.38
2022-12-20T22:53:08.321Z,100195.55
2022-12-20T22:55:12.752Z,100193.97
2022-12-20T22:57:17.207Z,100184.16
2022-12-20T22:59:21.692Z,100182.52
2022-12-20T23:01:26.513Z,100166.1
2022-12-20T23:03:31.773Z,100159.59
2022-12-20T23:05:36.646Z,100155.36
2022-12-20T23:07:41.077Z,100153.2
2022-12-20T23:09:45.550Z,100155.91
2022-12-20T23:11:49.968Z,100154.5
2022-12-20T23:13:54.419Z,100151.45
2022-12-20T23:15:59.030Z,100155.64
2022-12-20T23:18:03.532Z,100149.63
2022-12-20T23:20:07.980Z,100146.1
2022-12-20T23:22:12.447Z,100149.35
2022-12-20T23:24:16.989Z,100155.81
2022-12-20T23:26:21.399Z,100173.34
2022-12-20T23:28:25.815Z,100164.45
2022-12-20T23:30:30.202Z,100151.52
2022-12-20T23:32:34.830Z,100159.79
2022-12-20T23:34:39.280Z,100165.39
2022-12-20T23:36:43.728Z,100163.06
2022-12-20T23:38:48.142Z,100154.38
2022-12-20T23:40:52.605Z,100149.34
2022-12-20T23:42:57.057Z,100154.39
2022-12-20T23:45:01.535Z,100147.45
2022-12-20T23:47:06.074Z,100152.52
2022-12-20T23:49:10.615Z,100162.73
2022-12-20T23:51:15.177Z,100181.07
2022-12-20T23:53:19.643Z,100180.02
2022-12-20T23:55:24.158Z,100181.91